Terminal Aerodrome Forecast
Issued by NWS

Current Version | Previous Version | Graphics & Text | Print | Product List | Glossary On
Versions: 1 2 3 4 5 6 7 8 9 10 11 12 13 14
489
FTUS41 KILN 211504 AAA
TAFLCK
TAF AMD
KLCK 211504Z 2115/2212 35007KT 3SM -RA BR OVC003
     FM211700 35010KT P6SM SCT003 OVC012
     FM211900 35012G20KT P6SM VCSH SCT020 OVC035
     FM220000 35006KT P6SM SCT060=

USA.gov is the U.S. government's official web portal to all federal, state and local government web resources and services.